DLH956 EDDF-EGBB
Flight info
| Callsign | DLH956 |
|---|---|
| Flight time | N/A |
| Altitude | 36000 |
| Route | OBOKA2E OBOKA Z29 TORNU DCT GALSO Q63 ERING L179 LAM L610 HEMEL |
| Aircraft | A320/M-SDE3FGHIRWY/LB1 |
Departure
| Time | 2026-04-14 21:11 |
|---|---|
| Airport | Frankfurt Main Airport (EDDF) |
Arrival
| Time | N/A |
|---|---|
| Airport | Birmingham Airport (EGBB) |
| Time | Latitude | Longitude | Altitude | Speed | Heading |
|---|---|---|---|---|---|
| 2026-04-14 20:39 | 50.04393 | 8.56167 | 352 ft | 0 kts | 155° |
| 2026-04-14 21:00 | 50.04394 | 8.56166 | 325 ft | 2 kts | 155° |
| 2026-04-14 21:00 | 50.04417 | 8.56152 | 359 ft | 4 kts | 165° |
| 2026-04-14 21:01 | 50.04443 | 8.56146 | 355 ft | 4 kts | 189° |
| 2026-04-14 21:01 | 50.04463 | 8.56161 | 363 ft | 3 kts | 247° |
| 2026-04-14 21:01 | 50.04465 | 8.56170 | 362 ft | 0 kts | 249° |
| 2026-04-14 21:06 | 50.04464 | 8.56165 | 363 ft | 4 kts | 249° |
| 2026-04-14 21:06 | 50.04449 | 8.56105 | 357 ft | 13 kts | 249° |
| 2026-04-14 21:06 | 50.04386 | 8.56034 | 352 ft | 13 kts | 164° |
| 2026-04-14 21:06 | 50.04345 | 8.56056 | 357 ft | 1 kts | 161° |
| 2026-04-14 21:07 | 50.04344 | 8.56056 | 357 ft | 0 kts | 161° |
| 2026-04-14 21:08 | 50.04297 | 8.56097 | 352 ft | 12 kts | 131° |
| 2026-04-14 21:08 | 50.04246 | 8.56204 | 349 ft | 13 kts | 160° |
| 2026-04-14 21:08 | 50.04158 | 8.56254 | 352 ft | 15 kts | 163° |
| 2026-04-14 21:08 | 50.04101 | 8.56167 | 354 ft | 13 kts | 250° |
| 2026-04-14 21:09 | 50.04048 | 8.55951 | 356 ft | 25 kts | 250° |
| 2026-04-14 21:09 | 50.03988 | 8.55697 | 357 ft | 25 kts | 250° |
| 2026-04-14 21:09 | 50.03929 | 8.55446 | 360 ft | 24 kts | 249° |
| 2026-04-14 21:09 | 50.03868 | 8.55192 | 360 ft | 26 kts | 250° |
| 2026-04-14 21:10 | 50.03809 | 8.54947 | 360 ft | 25 kts | 249° |
| 2026-04-14 21:10 | 50.03746 | 8.54737 | 367 ft | 18 kts | 221° |
| 2026-04-14 21:10 | 50.03626 | 8.54751 | 366 ft | 19 kts | 157° |
| 2026-04-14 21:10 | 50.03614 | 8.54919 | 365 ft | 32 kts | 69° |
| 2026-04-14 21:11 | 50.03791 | 8.55660 | 362 ft | 108 kts | 70° |
| 2026-04-14 21:11 | 50.04116 | 8.57044 | 360 ft | 162 kts | 69° |
| 2026-04-14 21:11 | 50.04492 | 8.58666 | 1072 ft | 154 kts | 69° |
| 2026-04-14 21:11 | 50.04863 | 8.60243 | 1824 ft | 156 kts | 69° |
| 2026-04-14 21:12 | 50.05245 | 8.61859 | 2422 ft | 166 kts | 71° |
| 2026-04-14 21:12 | 50.05646 | 8.63672 | 2804 ft | 188 kts | 71° |
| 2026-04-14 21:12 | 50.06093 | 8.65712 | 3175 ft | 209 kts | 71° |
| 2026-04-14 21:12 | 50.06581 | 8.67926 | 3781 ft | 221 kts | 71° |
| 2026-04-14 21:13 | 50.07202 | 8.70132 | 4622 ft | 226 kts | 56° |
| 2026-04-14 21:13 | 50.08384 | 8.71864 | 4939 ft | 250 kts | 30° |
| 2026-04-14 21:13 | 50.10011 | 8.73001 | 5001 ft | 261 kts | 24° |
| 2026-04-14 21:14 | 50.13402 | 8.75247 | 6046 ft | 266 kts | 23° |
| 2026-04-14 21:14 | 50.15081 | 8.76367 | 7031 ft | 268 kts | 23° |
| 2026-04-14 21:14 | 50.16835 | 8.77543 | 7922 ft | 273 kts | 22° |
| 2026-04-14 21:14 | 50.18597 | 8.78732 | 8757 ft | 280 kts | 22° |
| 2026-04-14 21:15 | 50.20399 | 8.79955 | 9594 ft | 286 kts | 22° |
| 2026-04-14 21:15 | 50.22227 | 8.81177 | 10379 ft | 294 kts | 20° |
| 2026-04-14 21:15 | 50.24323 | 8.81795 | 10688 ft | 316 kts | 358° |
| 2026-04-14 21:15 | 50.26523 | 8.81045 | 10973 ft | 336 kts | 334° |
| 2026-04-14 21:16 | 50.28422 | 8.78876 | 11560 ft | 343 kts | 311° |
| 2026-04-14 21:16 | 50.29652 | 8.75661 | 12300 ft | 348 kts | 291° |
| 2026-04-14 21:16 | 50.30455 | 8.72131 | 13052 ft | 352 kts | 290° |
| 2026-04-14 21:16 | 50.31255 | 8.68487 | 13806 ft | 356 kts | 290° |
| 2026-04-14 21:17 | 50.32068 | 8.64745 | 14501 ft | 361 kts | 290° |
| 2026-04-14 21:17 | 50.32875 | 8.61020 | 15181 ft | 364 kts | 290° |
| 2026-04-14 21:17 | 50.33693 | 8.57250 | 15874 ft | 367 kts | 289° |
| 2026-04-14 21:17 | 50.34518 | 8.53447 | 16552 ft | 370 kts | 289° |
| 2026-04-14 21:18 | 50.35347 | 8.49613 | 17213 ft | 374 kts | 289° |
| 2026-04-14 21:18 | 50.36174 | 8.45790 | 17864 ft | 377 kts | 289° |
| 2026-04-14 21:18 | 50.37001 | 8.41812 | 18515 ft | 381 kts | 285° |
| 2026-04-14 21:18 | 50.37421 | 8.37771 | 19046 ft | 384 kts | 274° |
| 2026-04-14 21:19 | 50.37338 | 8.33566 | 19599 ft | 388 kts | 263° |
| 2026-04-14 21:19 | 50.36740 | 8.29431 | 20146 ft | 392 kts | 254° |
| 2026-04-14 21:19 | 50.35915 | 8.25331 | 20693 ft | 395 kts | 254° |
| 2026-04-14 21:19 | 50.35087 | 8.21210 | 21199 ft | 399 kts | 254° |
| 2026-04-14 21:20 | 50.34253 | 8.17046 | 21698 ft | 403 kts | 255° |
| 2026-04-14 21:20 | 50.33411 | 8.12847 | 22196 ft | 406 kts | 255° |
| 2026-04-14 21:20 | 50.32563 | 8.08625 | 22715 ft | 409 kts | 255° |
| 2026-04-14 21:20 | 50.31703 | 8.04357 | 23207 ft | 412 kts | 255° |
| 2026-04-14 21:21 | 50.30841 | 8.00064 | 23686 ft | 415 kts | 256° |
| 2026-04-14 21:21 | 50.30247 | 7.95659 | 24105 ft | 414 kts | 266° |
| 2026-04-14 21:21 | 50.30166 | 7.91160 | 24507 ft | 413 kts | 277° |
| 2026-04-14 21:21 | 50.30600 | 7.86735 | 24906 ft | 412 kts | 287° |
| 2026-04-14 21:22 | 50.31526 | 7.82517 | 25305 ft | 410 kts | 297° |
| 2026-04-14 21:22 | 50.32712 | 7.78465 | 25705 ft | 412 kts | 297° |
| 2026-04-14 21:22 | 50.33913 | 7.74377 | 26110 ft | 413 kts | 300° |
| 2026-04-14 21:22 | 50.35401 | 7.70555 | 26518 ft | 410 kts | 310° |
| 2026-04-14 21:23 | 50.37299 | 7.67235 | 26912 ft | 409 kts | 320° |
| 2026-04-14 21:23 | 50.39541 | 7.64513 | 27319 ft | 408 kts | 329° |
| 2026-04-14 21:23 | 50.42053 | 7.62447 | 27723 ft | 407 kts | 337° |
| 2026-04-14 21:23 | 50.44653 | 7.60660 | 28138 ft | 409 kts | 337° |
| 2026-04-14 21:24 | 50.47247 | 7.58872 | 28533 ft | 410 kts | 337° |
| 2026-04-14 21:24 | 50.49876 | 7.57058 | 28908 ft | 411 kts | 337° |
| 2026-04-14 21:24 | 50.52491 | 7.55256 | 29263 ft | 412 kts | 337° |
| 2026-04-14 21:24 | 50.55123 | 7.53418 | 29628 ft | 414 kts | 335° |
| 2026-04-14 21:25 | 50.57622 | 7.51135 | 29963 ft | 417 kts | 329° |
| 2026-04-14 21:25 | 50.60054 | 7.48642 | 30307 ft | 418 kts | 329° |
| 2026-04-14 21:25 | 50.62497 | 7.46136 | 30600 ft | 419 kts | 329° |
| 2026-04-14 21:25 | 50.64928 | 7.43641 | 31069 ft | 415 kts | 328° |
| 2026-04-14 21:26 | 50.67341 | 7.41160 | 31564 ft | 411 kts | 329° |
| 2026-04-14 21:26 | 50.69723 | 7.38708 | 32037 ft | 408 kts | 329° |
| 2026-04-14 21:26 | 50.72050 | 7.36170 | 32487 ft | 406 kts | 323° |
| 2026-04-14 21:26 | 50.74102 | 7.33114 | 32931 ft | 407 kts | 315° |
| 2026-04-14 21:27 | 50.75809 | 7.29544 | 33364 ft | 410 kts | 307° |
| 2026-04-14 21:27 | 50.77183 | 7.25576 | 33802 ft | 411 kts | 303° |
| 2026-04-14 21:27 | 50.78488 | 7.21567 | 34241 ft | 409 kts | 303° |
| 2026-04-14 21:27 | 50.79782 | 7.17587 | 34597 ft | 407 kts | 303° |
| 2026-04-14 21:28 | 50.81074 | 7.13608 | 34913 ft | 407 kts | 303° |
| 2026-04-14 21:28 | 50.82348 | 7.09681 | 35197 ft | 406 kts | 303° |
| 2026-04-14 21:28 | 50.83636 | 7.05702 | 35462 ft | 406 kts | 302° |
| 2026-04-14 21:28 | 50.84935 | 7.01675 | 35750 ft | 405 kts | 302° |
| 2026-04-14 21:29 | 50.86199 | 6.97756 | 36048 ft | 404 kts | 302° |
| 2026-04-14 21:29 | 50.87479 | 6.93794 | 36234 ft | 405 kts | 302° |
| 2026-04-14 21:29 | 50.90044 | 6.85849 | 36250 ft | 404 kts | 302° |
| 2026-04-14 21:30 | 50.92594 | 6.77889 | 36248 ft | 404 kts | 302° |
| 2026-04-14 21:30 | 50.95129 | 6.69928 | 36248 ft | 404 kts | 302° |
| 2026-04-14 21:31 | 50.97663 | 6.61981 | 36270 ft | 404 kts | 302° |
| 2026-04-14 21:31 | 51.00193 | 6.54021 | 36244 ft | 404 kts | 302° |
| 2026-04-14 21:32 | 51.02715 | 6.46049 | 36249 ft | 404 kts | 302° |
| 2026-04-14 21:32 | 51.05233 | 6.38069 | 36254 ft | 404 kts | 299° |
| 2026-04-14 21:33 | 51.07738 | 6.30069 | 36255 ft | 404 kts | 302° |
| 2026-04-14 21:33 | 51.10239 | 6.22095 | 36240 ft | 404 kts | 301° |
| 2026-04-14 21:34 | 51.12736 | 6.14085 | 36224 ft | 404 kts | 301° |
| 2026-04-14 21:34 | 51.14724 | 6.05660 | 36232 ft | 411 kts | 290° |
| 2026-04-14 21:35 | 51.16154 | 5.96860 | 36235 ft | 411 kts | 290° |
| 2026-04-14 21:35 | 51.17574 | 5.88040 | 36237 ft | 411 kts | 290° |
| 2026-04-14 21:36 | 51.19063 | 5.79331 | 36242 ft | 408 kts | 293° |
| 2026-04-14 21:36 | 51.20934 | 5.70819 | 36233 ft | 406 kts | 295° |
| 2026-04-14 21:37 | 51.22907 | 5.62383 | 36243 ft | 406 kts | 295° |
| 2026-04-14 21:37 | 51.24805 | 5.53906 | 36245 ft | 406 kts | 294° |
| 2026-04-14 21:38 | 51.26637 | 5.45394 | 36242 ft | 406 kts | 294° |
| 2026-04-14 21:38 | 51.28461 | 5.36862 | 36242 ft | 406 kts | 294° |
| 2026-04-14 21:39 | 51.30295 | 5.28345 | 36240 ft | 405 kts | 294° |
| 2026-04-14 21:39 | 51.32121 | 5.19815 | 36232 ft | 405 kts | 294° |
| 2026-04-14 21:40 | 51.33946 | 5.11272 | 36229 ft | 405 kts | 293° |
| 2026-04-14 21:40 | 51.35754 | 5.02745 | 36231 ft | 405 kts | 293° |
| 2026-04-14 21:41 | 51.37565 | 4.94202 | 36232 ft | 405 kts | 293° |
| 2026-04-14 21:41 | 51.39363 | 4.85655 | 36235 ft | 405 kts | 293° |
| 2026-04-14 21:42 | 51.41155 | 4.77092 | 36220 ft | 405 kts | 293° |
| 2026-04-14 21:42 | 51.42934 | 4.68537 | 36232 ft | 404 kts | 293° |
| 2026-04-14 21:43 | 51.44711 | 4.59987 | 36235 ft | 404 kts | 293° |
| 2026-04-14 21:43 | 51.46477 | 4.51457 | 36237 ft | 404 kts | 292° |
| 2026-04-14 21:44 | 51.48241 | 4.42914 | 36238 ft | 403 kts | 292° |
| 2026-04-14 21:44 | 51.50002 | 4.34368 | 36254 ft | 403 kts | 292° |
| 2026-04-14 21:45 | 51.51755 | 4.25800 | 36248 ft | 403 kts | 292° |
| 2026-04-14 21:45 | 51.53490 | 4.17237 | 36245 ft | 403 kts | 292° |
| 2026-04-14 21:46 | 51.55220 | 4.08686 | 36242 ft | 403 kts | 292° |